sensor_id;sensor_type;location;lat;lon;timestamp;pressure;altitude;pressure_sealevel;temperature;humidity
13476;BME280;6810;63.824;20.288;2022-12-11T00:02:33;101405.84;;;-2.77;81.99
13476;BME280;6810;63.824;20.288;2022-12-11T00:05:20;101432.88;;;-2.65;81.40
13476;BME280;6810;63.824;20.288;2022-12-11T00:08:07;101428.53;;;-2.64;81.21
13476;BME280;6810;63.824;20.288;2022-12-11T00:10:54;101423.31;;;-2.64;80.99
13476;BME280;6810;63.824;20.288;2022-12-11T00:13:41;101344.78;;;-3.12;81.35
13476;BME280;6810;63.824;20.288;2022-12-11T00:16:28;101295.97;;;-3.36;81.03
13476;BME280;6810;63.824;20.288;2022-12-11T00:19:15;101416.38;;;-2.62;81.08
13476;BME280;6810;63.824;20.288;2022-12-11T00:22:02;101388.44;;;-2.86;81.62
13476;BME280;6810;63.824;20.288;2022-12-11T00:24:48;101371.00;;;-2.90;81.82
13476;BME280;6810;63.824;20.288;2022-12-11T00:27:36;101436.44;;;-2.57;81.77
13476;BME280;6810;63.824;20.288;2022-12-11T00:30:23;101412.00;;;-2.68;82.30
13476;BME280;6810;63.824;20.288;2022-12-11T00:33:11;101432.06;;;-2.55;82.46
13476;BME280;6810;63.824;20.288;2022-12-11T00:35:58;101380.59;;;-2.86;81.59
13476;BME280;6810;63.824;20.288;2022-12-11T00:38:46;101436.44;;;-2.54;81.93
13476;BME280;6810;63.824;20.288;2022-12-11T00:41:33;101430.31;;;-2.59;81.95
13476;BME280;6810;63.824;20.288;2022-12-11T00:44:21;101443.41;;;-2.51;82.36
13476;BME280;6810;63.824;20.288;2022-12-11T00:47:08;101446.03;;;-2.48;82.34
13476;BME280;6810;63.824;20.288;2022-12-11T00:49:54;101410.25;;;-2.67;81.87
13476;BME280;6810;63.824;20.288;2022-12-11T00:52:41;101447.78;;;-2.44;81.59
13476;BME280;6810;63.824;20.288;2022-12-11T00:55:28;101448.69;;;-2.41;81.54
13476;BME280;6810;63.824;20.288;2022-12-11T00:58:15;101453.91;;;-2.38;82.17
13476;BME280;6810;63.824;20.288;2022-12-11T01:01:11;101443.47;;;-2.38;82.57
13476;BME280;6810;63.824;20.288;2022-12-11T01:03:58;101412.09;;;-2.53;82.01
13476;BME280;6810;63.824;20.288;2022-12-11T01:06:45;101445.19;;;-2.40;82.04
13476;BME280;6810;63.824;20.288;2022-12-11T01:09:32;101475.75;;;-2.27;81.75
13476;BME280;6810;63.824;20.288;2022-12-11T01:12:17;101344.00;;;-2.98;82.31
13476;BME280;6810;63.824;20.288;2022-12-11T01:15:04;101436.53;;;-2.40;82.53
13476;BME280;6810;63.824;20.288;2022-12-11T01:17:52;101472.28;;;-2.20;82.82
13476;BME280;6810;63.824;20.288;2022-12-11T01:20:40;101406.88;;;-2.54;82.03
13476;BME280;6810;63.824;20.288;2022-12-11T01:23:27;101419.03;;;-2.50;82.46
13476;BME280;6810;63.824;20.288;2022-12-11T01:26:14;101462.69;;;-2.24;82.89
13476;BME280;6810;63.824;20.288;2022-12-11T01:29:01;101461.00;;;-2.17;82.66
13476;BME280;6810;63.824;20.288;2022-12-11T01:31:47;101487.16;;;-2.07;82.60
13476;BME280;6810;63.824;20.288;2022-12-11T01:34:34;101468.84;;;-2.14;82.78
13476;BME280;6810;63.824;20.288;2022-12-11T01:37:21;101446.16;;;-2.21;82.41
13476;BME280;6810;63.824;20.288;2022-12-11T01:40:08;101464.50;;;-2.12;82.79
13476;BME280;6810;63.824;20.288;2022-12-11T01:42:57;101491.53;;;-1.98;82.91
13476;BME280;6810;63.824;20.288;2022-12-11T01:45:46;101488.94;;;-1.95;81.93
13476;BME280;6810;63.824;20.288;2022-12-11T01:48:33;101490.69;;;-1.94;82.89
13476;BME280;6810;63.824;20.288;2022-12-11T01:51:21;101491.56;;;-1.91;82.07
13476;BME280;6810;63.824;20.288;2022-12-11T01:54:11;101487.25;;;-1.89;82.16
13476;BME280;6810;63.824;20.288;2022-12-11T01:57:03;101435.72;;;-2.21;82.20
13476;BME280;6810;63.824;20.288;2022-12-11T01:59:51;101482.88;;;-1.93;82.14
13476;BME280;6810;63.824;20.288;2022-12-11T02:02:42;101444.47;;;-2.15;82.85
13476;BME280;6810;63.824;20.288;2022-12-11T02:05:29;101493.38;;;-1.79;82.84
13476;BME280;6810;63.824;20.288;2022-12-11T02:08:17;101477.69;;;-1.88;82.49
13476;BME280;6810;63.824;20.288;2022-12-11T02:11:09;101446.25;;;-2.03;82.33
13476;BME280;6810;63.824;20.288;2022-12-11T02:14:07;101493.41;;;-1.73;82.80
13476;BME280;6810;63.824;20.288;2022-12-11T02:20:21;101439.31;;;-2.01;82.02
13476;BME280;6810;63.824;20.288;2022-12-11T02:26:17;101500.41;;;-1.63;82.26
13476;BME280;6810;63.824;20.288;2022-12-11T02:29:12;101475.13;;;-1.71;81.96
13476;BME280;6810;63.824;20.288;2022-12-11T02:32:10;101500.41;;;-1.60;82.24
13476;BME280;6810;63.824;20.288;2022-12-11T02:38:16;101503.91;;;-1.55;82.03
13476;BME280;6810;63.824;20.288;2022-12-11T02:41:04;101510.88;;;-1.51;83.04
13476;BME280;6810;63.824;20.288;2022-12-11T02:43:54;101506.53;;;-1.49;82.26
13476;BME280;6810;63.824;20.288;2022-12-11T02:46:43;101512.66;;;-1.47;82.59
13476;BME280;6810;63.824;20.288;2022-12-11T02:49:32;101509.16;;;-1.47;82.40
13476;BME280;6810;63.824;20.288;2022-12-11T02:52:21;101511.78;;;-1.41;82.36
13476;BME280;6810;63.824;20.288;2022-12-11T02:55:11;101509.19;;;-1.40;82.87
13476;BME280;6810;63.824;20.288;2022-12-11T02:58:07;101469.03;;;-1.61;82.45
13476;BME280;6810;63.824;20.288;2022-12-11T03:00:58;101516.16;;;-1.34;82.81
13476;BME280;6810;63.824;20.288;2022-12-11T03:03:45;101521.38;;;-1.33;82.36
13476;BME280;6810;63.824;20.288;2022-12-11T03:06:36;101510.06;;;-1.39;82.71
13476;BME280;6810;63.824;20.288;2022-12-11T03:09:23;101495.22;;;-1.45;82.81
13476;BME280;6810;63.824;20.288;2022-12-11T03:12:13;101529.28;;;-1.25;82.54
13476;BME280;6810;63.824;20.288;2022-12-11T03:15:05;101485.63;;;-1.50;82.63
13476;BME280;6810;63.824;20.288;2022-12-11T03:18:00;101534.53;;;-1.22;82.72
13476;BME280;6810;63.824;20.288;2022-12-11T03:21:04;101538.84;;;-1.29;82.09
13476;BME280;6810;63.824;20.288;2022-12-11T03:24:02;101538.00;;;-1.19;82.80
13476;BME280;6810;63.824;20.288;2022-12-11T03:26:56;101543.22;;;-1.17;82.22
13476;BME280;6810;63.824;20.288;2022-12-11T03:29:53;101496.97;;;-1.50;82.21
13476;BME280;6810;63.824;20.288;2022-12-11T03:32:47;101555.47;;;-1.13;82.68
13476;BME280;6810;63.824;20.288;2022-12-11T03:35:39;101561.53;;;-1.10;83.00
13476;BME280;6810;63.824;20.288;2022-12-11T03:41:55;101532.72;;;-1.34;82.56
13476;BME280;6810;63.824;20.288;2022-12-11T03:44:45;101562.44;;;-1.06;82.38
13476;BME280;6810;63.824;20.288;2022-12-11T03:47:33;101557.19;;;-1.14;82.99
13476;BME280;6810;63.824;20.288;2022-12-11T03:50:25;101476.03;;;-1.59;82.29
13476;BME280;6810;63.824;20.288;2022-12-11T03:53:14;101551.94;;;-1.20;82.83
13476;BME280;6810;63.824;20.288;2022-12-11T03:56:05;101572.91;;;-1.03;82.68
13476;BME280;6810;63.824;20.288;2022-12-11T03:58:54;101564.16;;;-1.10;83.11
13476;BME280;6810;63.824;20.288;2022-12-11T04:01:41;101550.22;;;-1.21;82.73
13476;BME280;6810;63.824;20.288;2022-12-11T04:04:28;101565.91;;;-1.13;82.90
13476;BME280;6810;63.824;20.288;2022-12-11T04:07:15;101558.91;;;-1.20;82.81
13476;BME280;6810;63.824;20.288;2022-12-11T04:10:03;101594.72;;;-1.01;82.97
13476;BME280;6810;63.824;20.288;2022-12-11T04:12:50;101606.09;;;-0.93;83.06
13476;BME280;6810;63.824;20.288;2022-12-11T04:15:37;101603.47;;;-0.92;82.93
13476;BME280;6810;63.824;20.288;2022-12-11T04:18:24;101602.59;;;-0.91;83.15
13476;BME280;6810;63.824;20.288;2022-12-11T04:21:10;101607.81;;;-0.89;82.91
13476;BME280;6810;63.824;20.288;2022-12-11T04:23:55;101576.38;;;-1.09;82.83
13476;BME280;6810;63.824;20.288;2022-12-11T04:27:00;101569.38;;;-1.13;83.03
13476;BME280;6810;63.824;20.288;2022-12-11T04:29:47;101595.56;;;-0.99;82.89
13476;BME280;6810;63.824;20.288;2022-12-11T04:32:34;101573.75;;;-1.12;83.18
13476;BME280;6810;63.824;20.288;2022-12-11T04:35:21;101584.25;;;-1.06;82.87
13476;BME280;6810;63.824;20.288;2022-12-11T04:38:08;101621.78;;;-0.86;83.20
13476;BME280;6810;63.824;20.288;2022-12-11T04:41:04;101630.50;;;-0.85;82.70
13476;BME280;6810;63.824;20.288;2022-12-11T04:43:51;101598.19;;;-1.01;83.23
13476;BME280;6810;63.824;20.288;2022-12-11T04:46:38;101573.75;;;-1.19;83.06
13476;BME280;6810;63.824;20.288;2022-12-11T04:49:25;101632.25;;;-0.86;83.11
13476;BME280;6810;63.824;20.288;2022-12-11T04:52:12;101605.16;;;-1.12;82.69
13476;BME280;6810;63.824;20.288;2022-12-11T04:54:59;101647.06;;;-0.85;83.43
13476;BME280;6810;63.824;20.288;2022-12-11T04:57:45;101652.31;;;-0.85;83.51
13476;BME280;6810;63.824;20.288;2022-12-11T05:00:32;101655.81;;;-0.86;83.30
13476;BME280;6810;63.824;20.288;2022-12-11T05:03:19;101591.16;;;-1.20;83.35
13476;BME280;6810;63.824;20.288;2022-12-11T05:06:08;101587.66;;;-1.28;83.11
13476;BME280;6810;63.824;20.288;2022-12-11T05:08:55;101631.34;;;-1.01;83.18
13476;BME280;6810;63.824;20.288;2022-12-11T05:11:42;101658.41;;;-0.86;83.30
13476;BME280;6810;63.824;20.288;2022-12-11T05:14:29;101620.84;;;-1.15;83.29
13476;BME280;6810;63.824;20.288;2022-12-11T05:17:15;101666.28;;;-0.86;83.52
13476;BME280;6810;63.824;20.288;2022-12-11T05:20:02;101671.50;;;-0.86;83.14
13476;BME280;6810;63.824;20.288;2022-12-11T05:22:49;101671.50;;;-0.84;83.32
13476;BME280;6810;63.824;20.288;2022-12-11T05:25:36;101657.53;;;-0.91;83.14
13476;BME280;6810;63.824;20.288;2022-12-11T05:28:24;101674.97;;;-0.85;83.08
13476;BME280;6810;63.824;20.288;2022-12-11T05:31:14;101681.09;;;-0.86;83.12
13476;BME280;6810;63.824;20.288;2022-12-11T05:34:01;101669.72;;;-0.93;83.65
13476;BME280;6810;63.824;20.288;2022-12-11T05:36:48;101651.34;;;-1.09;83.47
13476;BME280;6810;63.824;20.288;2022-12-11T05:39:35;101691.56;;;-0.86;83.06
13476;BME280;6810;63.824;20.288;2022-12-11T05:42:22;101630.38;;;-1.24;83.17
13476;BME280;6810;63.824;20.288;2022-12-11T05:45:09;101695.03;;;-0.89;83.50
13476;BME280;6810;63.824;20.288;2022-12-11T05:47:56;101696.78;;;-0.89;83.65
13476;BME280;6810;63.824;20.288;2022-12-11T05:50:43;101711.59;;;-0.90;83.18
13476;BME280;6810;63.824;20.288;2022-12-11T05:53:30;101700.25;;;-0.92;83.42
13476;BME280;6810;63.824;20.288;2022-12-11T05:56:19;101700.25;;;-0.96;83.55
13476;BME280;6810;63.824;20.288;2022-12-11T05:59:07;101717.69;;;-0.91;83.31
13476;BME280;6810;63.824;20.288;2022-12-11T06:01:54;101685.34;;;-1.08;83.61
13476;BME280;6810;63.824;20.288;2022-12-11T06:04:41;101709.84;;;-0.95;83.59
13476;BME280;6810;63.824;20.288;2022-12-11T06:07:28;101716.81;;;-0.88;83.85
13476;BME280;6810;63.824;20.288;2022-12-11T06:10:15;101694.13;;;-1.01;83.12
13476;BME280;6810;63.824;20.288;2022-12-11T06:13:02;101722.94;;;-0.89;83.30
13476;BME280;6810;63.824;20.288;2022-12-11T06:15:49;101689.66;;;-1.17;83.24
13476;BME280;6810;63.824;20.288;2022-12-11T06:18:38;101709.78;;;-1.06;83.82
13476;BME280;6810;63.824;20.288;2022-12-11T06:21:28;101741.22;;;-0.94;83.69
13476;BME280;6810;63.824;20.288;2022-12-11T06:24:15;101745.56;;;-0.94;83.71
13476;BME280;6810;63.824;20.288;2022-12-11T06:27:02;101750.81;;;-0.94;83.79
13476;BME280;6810;63.824;20.288;2022-12-11T06:29:48;101726.31;;;-1.10;83.27
13476;BME280;6810;63.824;20.288;2022-12-11T06:32:35;101757.81;;;-0.93;83.50
13476;BME280;6810;63.824;20.288;2022-12-11T06:35:22;101760.44;;;-0.95;83.47
13476;BME280;6810;63.824;20.288;2022-12-11T06:38:09;101774.34;;;-0.96;83.47
13476;BME280;6810;63.824;20.288;2022-12-11T06:40:57;101752.47;;;-1.07;83.80
13476;BME280;6810;63.824;20.288;2022-12-11T06:43:44;101775.22;;;-0.97;83.71
13476;BME280;6810;63.824;20.288;2022-12-11T06:46:31;101748.13;;;-1.11;83.38
13476;BME280;6810;63.824;20.288;2022-12-11T06:49:17;101768.19;;;-1.02;83.40
13476;BME280;6810;63.824;20.288;2022-12-11T06:52:04;101769.09;;;-1.02;83.83
13476;BME280;6810;63.824;20.288;2022-12-11T06:54:52;101785.72;;;-0.94;83.56
13476;BME280;6810;63.824;20.288;2022-12-11T06:57:39;101789.22;;;-0.93;83.86
13476;BME280;6810;63.824;20.288;2022-12-11T07:00:26;101783.97;;;-0.92;83.74
13476;BME280;6810;63.824;20.288;2022-12-11T07:03:13;101790.94;;;-0.94;83.90
13476;BME280;6810;63.824;20.288;2022-12-11T07:06:01;101790.94;;;-0.92;83.54
13476;BME280;6810;63.824;20.288;2022-12-11T07:08:48;101802.31;;;-0.92;83.84
13476;BME280;6810;63.824;20.288;2022-12-11T07:11:35;101793.53;;;-0.97;83.85
13476;BME280;6810;63.824;20.288;2022-12-11T07:14:22;101810.16;;;-0.90;84.36
13476;BME280;6810;63.824;20.288;2022-12-11T07:17:09;101810.13;;;-0.93;83.73
13476;BME280;6810;63.824;20.288;2022-12-11T07:19:55;101811.91;;;-0.89;83.57
13476;BME280;6810;63.824;20.288;2022-12-11T07:22:43;101748.84;;;-1.31;83.96
13476;BME280;6810;63.824;20.288;2022-12-11T07:25:30;101713.00;;;-1.55;83.75
13476;BME280;6810;63.824;20.288;2022-12-11T07:28:16;101814.47;;;-0.97;83.91
13476;BME280;6810;63.824;20.288;2022-12-11T07:31:07;101828.47;;;-0.89;83.83
13476;BME280;6810;63.824;20.288;2022-12-11T07:33:57;101794.28;;;-1.16;83.67
13476;BME280;6810;63.824;20.288;2022-12-11T07:36:44;101827.59;;;-0.88;83.62
13476;BME280;6810;63.824;20.288;2022-12-11T07:39:31;101840.69;;;-0.88;83.46
13476;BME280;6810;63.824;20.288;2022-12-11T07:42:18;101837.19;;;-0.88;83.51
13476;BME280;6810;63.824;20.288;2022-12-11T07:45:11;101810.91;;;-1.08;84.02
13476;BME280;6810;63.824;20.288;2022-12-11T07:47:58;101849.41;;;-0.90;83.69
13476;BME280;6810;63.824;20.288;2022-12-11T07:50:45;101768.84;;;-1.41;83.32
13476;BME280;6810;63.824;20.288;2022-12-11T07:53:31;101824.84;;;-1.12;83.46
13476;BME280;6810;63.824;20.288;2022-12-11T07:56:19;101828.31;;;-1.10;84.35
13476;BME280;6810;63.824;20.288;2022-12-11T07:59:09;101794.19;;;-1.28;83.59
13476;BME280;6810;63.824;20.288;2022-12-11T08:01:56;101872.97;;;-0.89;83.94
13476;BME280;6810;63.824;20.288;2022-12-11T08:04:43;101849.28;;;-1.04;83.47
13476;BME280;6810;63.824;20.288;2022-12-11T08:07:10;101878.19;;;-0.90;83.36
13476;BME280;6810;63.824;20.288;2022-12-11T08:09:57;101881.63;;;-0.91;83.80
13476;BME280;6810;63.824;20.288;2022-12-11T08:12:44;101872.94;;;-0.93;83.93
13476;BME280;6810;63.824;20.288;2022-12-11T08:15:10;101887.75;;;-0.91;83.45
13476;BME280;6810;63.824;20.288;2022-12-11T08:17:57;101884.22;;;-0.96;83.95
13476;BME280;6810;63.824;20.288;2022-12-11T08:20:44;101895.63;;;-0.88;83.74
13476;BME280;6810;63.824;20.288;2022-12-11T08:23:31;101883.38;;;-0.95;83.69
13476;BME280;6810;63.824;20.288;2022-12-11T08:26:24;101893.88;;;-0.90;83.66
13476;BME280;6810;63.824;20.288;2022-12-11T08:29:11;101832.59;;;-1.25;83.64
13476;BME280;6810;63.824;20.288;2022-12-11T08:31:58;101813.28;;;-1.44;83.72
13476;BME280;6810;63.824;20.288;2022-12-11T08:34:44;101896.50;;;-0.92;83.98
13476;BME280;6810;63.824;20.288;2022-12-11T08:37:33;101899.13;;;-0.90;83.49
13476;BME280;6810;63.824;20.288;2022-12-11T08:40:19;101885.91;;;-1.04;83.88
13476;BME280;6810;63.824;20.288;2022-12-11T08:43:06;101830.81;;;-1.29;83.95
13476;BME280;6810;63.824;20.288;2022-12-11T08:45:53;101925.34;;;-0.83;83.99
13476;BME280;6810;63.824;20.288;2022-12-11T08:48:41;101905.19;;;-0.93;83.50
13476;BME280;6810;63.824;20.288;2022-12-11T08:51:30;101929.69;;;-0.82;83.85
13476;BME280;6810;63.824;20.288;2022-12-11T08:54:17;101911.28;;;-0.95;83.59
13476;BME280;6810;63.824;20.288;2022-12-11T08:57:04;101940.16;;;-0.82;83.58
13476;BME280;6810;63.824;20.288;2022-12-11T08:59:31;101926.16;;;-0.87;83.38
13476;BME280;6810;63.824;20.288;2022-12-11T09:01:57;101941.06;;;-0.80;83.48
13476;BME280;6810;63.824;20.288;2022-12-11T09:04:44;101919.97;;;-0.98;83.92
13476;BME280;6810;63.824;20.288;2022-12-11T09:07:31;101933.97;;;-0.91;83.65
13476;BME280;6810;63.824;20.288;2022-12-11T09:10:18;101952.38;;;-0.81;83.46
13476;BME280;6810;63.824;20.288;2022-12-11T09:13:05;101963.72;;;-0.82;83.79
13476;BME280;6810;63.824;20.288;2022-12-11T09:15:52;101955.78;;;-0.92;83.49
13476;BME280;6810;63.824;20.288;2022-12-11T09:18:39;101937.44;;;-0.97;83.46
13476;BME280;6810;63.824;20.288;2022-12-11T09:21:28;101904.09;;;-1.19;83.57
13476;BME280;6810;63.824;20.288;2022-12-11T09:24:15;101967.19;;;-0.84;83.78
13476;BME280;6810;63.824;20.288;2022-12-11T09:27:03;101977.69;;;-0.80;83.56
13476;BME280;6810;63.824;20.288;2022-12-11T09:29:50;101981.16;;;-0.79;83.32
13476;BME280;6810;63.824;20.288;2022-12-11T09:32:36;101979.41;;;-0.80;83.43
13476;BME280;6810;63.824;20.288;2022-12-11T09:35:23;101941.78;;;-0.97;83.39
13476;BME280;6810;63.824;20.288;2022-12-11T09:38:10;101985.53;;;-0.83;83.39
13476;BME280;6810;63.824;20.288;2022-12-11T09:40:57;101917.16;;;-1.22;83.62
13476;BME280;6810;63.824;20.288;2022-12-11T09:46:59;101915.41;;;-1.23;83.17
13476;BME280;6810;63.824;20.288;2022-12-11T09:49:48;101981.06;;;-0.93;83.15
13476;BME280;6810;63.824;20.288;2022-12-11T09:52:50;101955.63;;;-1.09;83.68
13476;BME280;6810;63.824;20.288;2022-12-11T09:59:12;101999.44;;;-0.84;83.17
13476;BME280;6810;63.824;20.288;2022-12-11T10:05:35;101970.47;;;-1.06;83.50
13476;BME280;6810;63.824;20.288;2022-12-11T10:12:36;102007.22;;;-0.94;83.15
13476;BME280;6810;63.824;20.288;2022-12-11T11:23:19;102057.78;;;-0.97;83.04
13476;BME280;6810;63.824;20.288;2022-12-11T11:26:12;102043.69;;;-1.08;83.07
13476;BME280;6810;63.824;20.288;2022-12-11T11:29:30;102060.34;;;-1.03;82.90
13476;BME280;6810;63.824;20.288;2022-12-11T11:32:22;102075.22;;;-0.94;83.09
13476;BME280;6810;63.824;20.288;2022-12-11T11:37:59;102084.84;;;-0.95;83.06
13476;BME280;6810;63.824;20.288;2022-12-11T11:41:22;102079.59;;;-0.95;83.36
13476;BME280;6810;63.824;20.288;2022-12-11T11:44:15;102083.06;;;-0.96;83.38
13476;BME280;6810;63.824;20.288;2022-12-11T11:47:12;102090.06;;;-0.96;83.38
13476;BME280;6810;63.824;20.288;2022-12-11T11:50:16;102086.56;;;-0.95;83.18
13476;BME280;6810;63.824;20.288;2022-12-11T11:53:42;102091.72;;;-1.04;83.63
13476;BME280;6810;63.824;20.288;2022-12-11T11:56:27;102096.16;;;-0.96;83.31
13476;BME280;6810;63.824;20.288;2022-12-11T11:59:30;102090.06;;;-0.95;83.18
13476;BME280;6810;63.824;20.288;2022-12-11T12:02:18;102097.06;;;-0.94;83.58
13476;BME280;6810;63.824;20.288;2022-12-11T12:05:11;102107.50;;;-0.94;83.64
13476;BME280;6810;63.824;20.288;2022-12-11T12:07:47;102105.78;;;-0.95;83.34
13476;BME280;6810;63.824;20.288;2022-12-11T12:10:54;102104.91;;;-0.94;83.28
13476;BME280;6810;63.824;20.288;2022-12-11T12:17:25;102093.44;;;-1.05;83.30
13476;BME280;6810;63.824;20.288;2022-12-11T12:26:37;102124.13;;;-0.90;83.42
13476;BME280;6810;63.824;20.288;2022-12-11T12:29:43;102133.72;;;-0.91;83.22
13476;BME280;6810;63.824;20.288;2022-12-11T12:36:04;102132.03;;;-0.87;83.16
13476;BME280;6810;63.824;20.288;2022-12-11T12:38:54;102122.41;;;-0.87;82.90
13476;BME280;6810;63.824;20.288;2022-12-11T12:42:15;102129.38;;;-0.89;83.41
13476;BME280;6810;63.824;20.288;2022-12-11T12:45:06;102124.91;;;-0.97;83.25
13476;BME280;6810;63.824;20.288;2022-12-11T12:47:55;102133.63;;;-0.98;83.11
13476;BME280;6810;63.824;20.288;2022-12-11T12:50:45;102084.44;;;-1.29;83.15
13476;BME280;6810;63.824;20.288;2022-12-11T12:53:35;102094.91;;;-1.29;83.23
13476;BME280;6810;63.824;20.288;2022-12-11T12:56:23;102149.34;;;-0.97;83.55
13476;BME280;6810;63.824;20.288;2022-12-11T12:59:25;102115.09;;;-1.18;83.19
13476;BME280;6810;63.824;20.288;2022-12-11T13:02:13;102158.88;;;-1.00;83.45
13476;BME280;6810;63.824;20.288;2022-12-11T13:05:18;102154.53;;;-1.01;82.89
13476;BME280;6810;63.824;20.288;2022-12-11T13:08:06;102146.59;;;-1.09;82.98
13476;BME280;6810;63.824;20.288;2022-12-11T13:11:03;102163.19;;;-1.04;83.01
13476;BME280;6810;63.824;20.288;2022-12-11T13:14:05;102168.44;;;-1.02;83.13
13476;BME280;6810;63.824;20.288;2022-12-11T13:17:07;102158.81;;;-1.08;83.07
13476;BME280;6810;63.824;20.288;2022-12-11T13:20:17;102183.31;;;-1.01;83.50
13476;BME280;6810;63.824;20.288;2022-12-11T13:26:02;102185.06;;;-0.99;83.28
13476;BME280;6810;63.824;20.288;2022-12-11T13:28:50;102199.91;;;-0.98;83.75
13476;BME280;6810;63.824;20.288;2022-12-11T13:31:38;102184.13;;;-1.04;83.36
13476;BME280;6810;63.824;20.288;2022-12-11T13:34:30;102190.31;;;-0.99;83.78
13476;BME280;6810;63.824;20.288;2022-12-11T13:37:39;102202.59;;;-0.93;83.38
13476;BME280;6810;63.824;20.288;2022-12-11T13:40:19;102159.50;;;-1.22;83.06
13476;BME280;6810;63.824;20.288;2022-12-11T13:43:16;102132.28;;;-1.38;83.29
13476;BME280;6810;63.824;20.288;2022-12-11T13:46:06;102206.94;;;-0.94;83.17
13476;BME280;6810;63.824;20.288;2022-12-11T13:49:05;102208.69;;;-0.93;83.13
13476;BME280;6810;63.824;20.288;2022-12-11T13:51:56;102211.28;;;-0.94;83.49
13476;BME280;6810;63.824;20.288;2022-12-11T13:54:48;102220.91;;;-0.95;83.06
13476;BME280;6810;63.824;20.288;2022-12-11T13:57:44;102214.78;;;-0.95;83.28
13476;BME280;6810;63.824;20.288;2022-12-11T14:00:31;102212.19;;;-0.94;83.74
13476;BME280;6810;63.824;20.288;2022-12-11T14:03:18;102199.84;;;-1.01;83.74
13476;BME280;6810;63.824;20.288;2022-12-11T14:06:08;102204.25;;;-1.01;83.28
13476;BME280;6810;63.824;20.288;2022-12-11T14:08:58;102206.88;;;-1.00;83.72
13476;BME280;6810;63.824;20.288;2022-12-11T14:11:47;102225.25;;;-0.95;83.62
13476;BME280;6810;63.824;20.288;2022-12-11T14:14:42;102233.09;;;-0.95;83.44
13476;BME280;6810;63.824;20.288;2022-12-11T14:17:33;102228.75;;;-0.95;83.31
13476;BME280;6810;63.824;20.288;2022-12-11T14:20:31;102242.69;;;-0.94;83.43
13476;BME280;6810;63.824;20.288;2022-12-11T14:23:24;102209.34;;;-1.10;82.92
13476;BME280;6810;63.824;20.288;2022-12-11T14:26:30;102249.59;;;-0.98;83.22
13476;BME280;6810;63.824;20.288;2022-12-11T14:29:25;102243.53;;;-0.98;83.34
13476;BME280;6810;63.824;20.288;2022-12-11T14:35:05;102253.06;;;-1.00;82.83
13476;BME280;6810;63.824;20.288;2022-12-11T14:38:12;102257.38;;;-1.04;83.46
13476;BME280;6810;63.824;20.288;2022-12-11T14:41:18;102251.28;;;-1.06;83.44
13476;BME280;6810;63.824;20.288;2022-12-11T14:44:07;102254.72;;;-1.07;82.76
13476;BME280;6810;63.824;20.288;2022-12-11T14:47:14;102151.94;;;-1.67;83.56
13476;BME280;6810;63.824;20.288;2022-12-11T14:50:22;102254.69;;;-1.10;83.10
13476;BME280;6810;63.824;20.288;2022-12-11T14:53:13;102255.56;;;-1.09;83.27
13476;BME280;6810;63.824;20.288;2022-12-11T14:56:04;102240.66;;;-1.18;83.39
13476;BME280;6810;63.824;20.288;2022-12-11T14:58:57;102258.22;;;-1.08;83.29
13476;BME280;6810;63.824;20.288;2022-12-11T15:02:40;102183.50;;;-1.52;83.63
13476;BME280;6810;63.824;20.288;2022-12-11T15:13:55;102258.25;;;-1.03;83.29
13476;BME280;6810;63.824;20.288;2022-12-11T15:16:44;102261.88;;;-0.95;83.70
13476;BME280;6810;63.824;20.288;2022-12-11T15:19:33;102271.47;;;-0.94;83.78
13476;BME280;6810;63.824;20.288;2022-12-11T15:22:21;102252.19;;;-0.99;83.55
13476;BME280;6810;63.824;20.288;2022-12-11T15:25:21;102274.94;;;-0.97;83.73
13476;BME280;6810;63.824;20.288;2022-12-11T15:28:25;102205.59;;;-1.30;83.10
13476;BME280;6810;63.824;20.288;2022-12-11T15:31:25;102274.94;;;-0.95;83.52
13476;BME280;6810;63.824;20.288;2022-12-11T15:34:22;102261.78;;;-1.01;83.20
13476;BME280;6810;63.824;20.288;2022-12-11T15:40:08;102274.06;;;-0.96;83.43
13476;BME280;6810;63.824;20.288;2022-12-11T15:42:56;102267.84;;;-1.02;83.41
13476;BME280;6810;63.824;20.288;2022-12-11T15:45:43;102284.50;;;-0.97;83.82
13476;BME280;6810;63.824;20.288;2022-12-11T15:48:30;102270.50;;;-1.01;83.32
13476;BME280;6810;63.824;20.288;2022-12-11T15:51:17;102280.16;;;-0.97;83.55
13476;BME280;6810;63.824;20.288;2022-12-11T15:54:09;102286.22;;;-0.98;83.37
13476;BME280;6810;63.824;20.288;2022-12-11T15:56:56;102282.81;;;-0.95;83.90
13476;BME280;6810;63.824;20.288;2022-12-11T15:59:44;102281.00;;;-0.98;83.23
13476;BME280;6810;63.824;20.288;2022-12-11T16:02:32;102254.56;;;-1.17;83.61
13476;BME280;6810;63.824;20.288;2022-12-11T16:05:19;102268.66;;;-1.09;83.61
13476;BME280;6810;63.824;20.288;2022-12-11T16:08:11;102270.41;;;-1.08;83.19
13476;BME280;6810;63.824;20.288;2022-12-11T16:10:58;102278.22;;;-1.10;83.36
13476;BME280;6810;63.824;20.288;2022-12-11T16:13:45;102302.84;;;-0.96;83.43
13476;BME280;6810;63.824;20.288;2022-12-11T16:16:32;102264.19;;;-1.16;83.94
13476;BME280;6810;63.824;20.288;2022-12-11T16:19:19;102281.75;;;-1.08;83.90
13476;BME280;6810;63.824;20.288;2022-12-11T16:22:07;102313.31;;;-0.96;83.74
13476;BME280;6810;63.824;20.288;2022-12-11T16:24:57;102304.59;;;-0.96;83.78
13476;BME280;6810;63.824;20.288;2022-12-11T16:27:44;102291.34;;;-1.07;83.39
13476;BME280;6810;63.824;20.288;2022-12-11T16:30:33;102305.44;;;-0.97;83.58
13476;BME280;6810;63.824;20.288;2022-12-11T16:33:21;102301.00;;;-1.03;83.33
13476;BME280;6810;63.824;20.288;2022-12-11T16:36:18;102318.50;;;-0.99;83.68
13476;BME280;6810;63.824;20.288;2022-12-11T16:39:05;102308.94;;;-0.98;83.23
13476;BME280;6810;63.824;20.288;2022-12-11T16:41:52;102313.28;;;-0.97;83.44
13476;BME280;6810;63.824;20.288;2022-12-11T16:44:39;102315.03;;;-0.98;83.67
13476;BME280;6810;63.824;20.288;2022-12-11T16:47:25;102245.53;;;-1.39;83.26
13476;BME280;6810;63.824;20.288;2022-12-11T16:50:15;102324.59;;;-1.01;83.31
13476;BME280;6810;63.824;20.288;2022-12-11T16:53:02;102322.78;;;-1.04;83.57
13476;BME280;6810;63.824;20.288;2022-12-11T16:55:49;102315.88;;;-1.00;83.40
13476;BME280;6810;63.824;20.288;2022-12-11T16:58:35;102329.84;;;-1.00;83.68